Time;durP1;ratioP1;P1;durP2;ratioP2;P2;SDS_P1;SDS_P2;PMS_P1;PMS_P2;Temp;Humidity;BMP_temperature;BMP_pressure;BME280_temperature;BME280_humidity;BME280_pressure;Samples;Min_cycle;Max_cycle;Signal;HPM_P1;HPM_P2
2023/11/13 00:02:15;;;;;;;38.20;18.10;;;;;;;8.76;99.30;98319.52;135944;1273;24404;-72
2023/11/13 00:05:17;;;;;;;;;;;;;;;8.83;98.79;98320.48;135936;1273;22500;-72
2023/11/13 00:08:20;;;;;;;37.40;17.80;;;;;;;8.89;98.23;98323.43;135941;1273;22517;-72
2023/11/13 00:11:23;;;;;;;44.40;20.00;;;;;;;8.74;98.83;98325.73;135973;1254;22521;-73
2023/11/13 00:14:25;;;;;;;39.90;18.60;;;;;;;8.82;98.38;98326.65;135999;1273;22571;-72
2023/11/13 00:17:28;;;;;;;41.90;19.10;;;;;;;8.63;99.61;98331.64;136016;1273;22523;-72
2023/11/13 00:20:31;;;;;;;39.10;18.40;;;;;;;8.57;99.92;98335.67;135939;1273;22653;-72
2023/11/13 00:23:37;;;;;;;39.80;17.30;;;;;;;8.68;99.65;98333.29;135924;1273;22609;-72
2023/11/13 00:26:40;;;;;;;44.40;18.20;;;;;;;8.48;99.93;98338.64;136001;1273;22580;-73
2023/11/13 00:29:42;;;;;;;38.20;18.00;;;;;;;8.51;100.00;98340.36;136018;1273;22548;-73
2023/11/13 00:32:45;;;;;;;;;;;;;;;8.58;100.00;98342.77;135942;1273;22531;-72
2023/11/13 00:35:47;;;;;;;40.50;18.60;;;;;;;8.52;100.00;98345.56;135963;1273;22584;-72
2023/11/13 00:38:50;;;;;;;38.90;18.40;;;;;;;8.48;100.00;98339.52;135919;1273;23072;-72
2023/11/13 00:41:52;;;;;;;42.50;18.80;;;;;;;8.62;99.89;98337.77;135973;1273;22558;-73
2023/11/13 00:44:55;;;;;;;39.60;17.80;;;;;;;8.65;99.02;98344.05;136001;1273;22519;-73
2023/11/13 00:47:57;;;;;;;38.00;17.30;;;;;;;8.64;98.93;98342.93;135982;1273;22562;-73
2023/11/13 00:51:00;;;;;;;37.90;16.60;;;;;;;8.62;99.13;98345.98;135964;1267;22527;-73
2023/11/13 00:54:03;;;;;;;35.20;15.70;;;;;;;8.63;98.83;98351.65;135931;1273;22534;-72
2023/11/13 00:57:07;;;;;;;33.30;14.90;;;;;;;8.73;97.94;98350.58;135947;1273;22538;-72
2023/11/13 01:00:10;;;;;;;34.90;17.00;;;;;;;8.63;98.52;98351.67;135918;1273;23873;-72
2023/11/13 01:03:12;;;;;;;37.70;16.00;;;;;;;8.52;99.16;98352.88;135933;1273;22583;-72
2023/11/13 01:06:15;;;;;;;36.20;16.50;;;;;;;8.46;99.25;98351.64;135898;1273;22533;-72
2023/11/13 01:09:18;;;;;;;36.80;16.10;;;;;;;8.45;99.07;98356.73;135911;1256;22547;-73
2023/11/13 01:12:22;;;;;;;38.10;16.40;;;;;;;8.44;98.99;98354.52;135850;1273;25523;-73
2023/11/13 01:15:25;;;;;;;37.20;15.90;;;;;;;8.46;98.75;98355.29;135936;1273;22559;-73
2023/11/13 01:18:27;;;;;;;36.00;15.50;;;;;;;8.58;98.20;98355.80;135886;1273;22557;-72
2023/11/13 01:21:30;;;;;;;;;;;;;;;8.71;97.04;98358.54;135924;1273;22584;-73
2023/11/13 01:24:33;;;;;;;35.30;15.40;;;;;;;8.67;97.02;98360.33;135909;1273;22572;-73
2023/11/13 01:27:36;;;;;;;;;;;;;;;8.64;96.67;98361.54;135918;1255;22510;-72
2023/11/13 01:30:38;;;;;;;36.20;16.60;;;;;;;8.76;96.03;98356.67;135896;1274;22552;-72
2023/11/13 01:33:41;;;;;;;;;;;;;;;8.66;96.67;98360.94;135833;1273;22512;-73
2023/11/13 01:36:43;;;;;;;35.60;16.10;;;;;;;8.53;97.13;98358.02;135933;1273;22540;-73
2023/11/13 01:39:46;;;;;;;33.70;15.30;;;;;;;8.58;96.58;98358.61;135957;1269;24327;-73
2023/11/13 01:42:48;;;;;;;34.60;15.70;;;;;;;8.48;97.14;98357.98;135885;1273;22593;-73
2023/11/13 01:45:51;;;;;;;36.00;15.20;;;;;;;8.48;97.57;98359.00;135941;1273;22562;-73
2023/11/13 01:48:53;;;;;;;40.00;16.30;;;;;;;8.66;96.03;98359.00;135950;1273;22533;-73
2023/11/13 01:51:56;;;;;;;;;;;;;;;8.82;95.22;98358.36;135886;1273;22522;-73
2023/11/13 01:54:58;;;;;;;40.30;17.40;;;;;;;8.88;94.89;98359.23;135882;1272;22569;-72
2023/11/13 01:58:02;;;;;;;38.60;17.40;;;;;;;9.05;93.83;98360.96;135905;1273;22567;-73
2023/11/13 02:01:05;;;;;;;42.20;18.00;;;;;;;9.14;92.89;98355.88;135958;1273;22538;-73
2023/11/13 02:04:08;;;;;;;40.50;17.10;;;;;;;9.08;92.90;98356.77;135948;1256;22527;-73
2023/11/13 02:07:10;;;;;;;38.40;17.00;;;;;;;9.09;92.42;98352.86;135884;1273;22640;-72
2023/11/13 02:10:13;;;;;;;;;;;;;;;9.09;92.29;98355.65;135880;1273;22688;-73
2023/11/13 02:13:16;;;;;;;;;;;;;;;9.02;93.17;98353.15;135856;1273;22509;-73
2023/11/13 02:16:18;;;;;;;40.20;17.60;;;;;;;8.79;94.61;98356.13;135889;1274;22558;-72
2023/11/13 02:19:21;;;;;;;;;;;;;;;8.75;94.69;98358.61;135913;1273;24631;-73
2023/11/13 02:22:24;;;;;;;41.30;19.50;;;;;;;8.83;94.01;98356.02;135904;1273;22691;-73
2023/11/13 02:25:27;;;;;;;42.10;19.40;;;;;;;8.76;94.29;98356.67;135906;1256;22543;-73
2023/11/13 02:28:30;;;;;;;43.40;19.40;;;;;;;8.74;94.25;98352.23;135931;1260;22645;-73
2023/11/13 02:31:32;;;;;;;41.00;18.50;;;;;;;8.63;94.76;98352.39;135832;1273;22676;-73
2023/11/13 02:34:35;;;;;;;42.50;18.90;;;;;;;8.66;94.29;98354.14;135906;1273;24240;-73
2023/11/13 02:37:38;;;;;;;36.40;17.20;;;;;;;8.45;95.32;98359.18;135900;1273;22528;-73
2023/11/13 02:40:40;;;;;;;38.80;17.30;;;;;;;8.37;96.00;98355.31;135881;1273;24205;-73
2023/11/13 02:43:43;;;;;;;40.30;17.40;;;;;;;8.35;96.01;98365.51;135883;1273;22527;-73
2023/11/13 02:46:46;;;;;;;40.20;18.30;;;;;;;8.30;96.57;98367.54;135907;1273;22556;-73
2023/11/13 02:49:49;;;;;;;39.70;17.70;;;;;;;8.32;96.61;98370.56;135882;1273;22556;-73
2023/11/13 02:52:51;;;;;;;44.30;19.40;;;;;;;8.27;96.99;98371.91;135867;1273;22549;-73
2023/11/13 02:55:54;;;;;;;41.30;18.70;;;;;;;8.24;97.59;98368.41;135874;1273;22639;-73
2023/11/13 02:58:56;;;;;;;38.40;17.10;;;;;;;8.08;98.56;98375.94;135931;1273;22544;-73
2023/11/13 03:01:59;;;;;;;41.50;18.60;;;;;;;8.18;97.91;98377.14;135835;1273;22538;-73
2023/11/13 03:05:01;;;;;;;41.90;17.60;;;;;;;8.23;97.70;98381.74;135875;1273;22548;-73
2023/11/13 03:08:04;;;;;;;;;;;;;;;8.12;98.20;98380.60;135886;1273;22498;-73
2023/11/13 03:11:06;;;;;;;41.20;18.70;;;;;;;7.99;99.41;98378.37;135870;1273;25306;-73
2023/11/13 03:14:09;;;;;;;40.30;18.50;;;;;;;8.17;98.00;98377.16;135845;1273;22629;-73
2023/11/13 03:17:11;;;;;;;39.90;18.80;;;;;;;8.19;97.41;98378.28;135905;1273;22631;-73
2023/11/13 03:20:14;;;;;;;44.80;19.40;;;;;;;8.09;98.17;98370.84;135902;1273;22531;-73
2023/11/13 03:23:16;;;;;;;;;;;;;;;7.92;99.45;98364.69;135906;1273;22599;-73
2023/11/13 03:26:19;;;;;;;40.90;17.50;;;;;;;7.94;99.40;98364.23;135852;1273;24197;-73
2023/11/13 03:29:21;;;;;;;41.20;18.70;;;;;;;8.17;98.20;98363.98;135842;1273;22624;-73
2023/11/13 03:32:24;;;;;;;36.70;17.70;;;;;;;8.21;97.77;98372.07;135851;1256;22530;-73
2023/11/13 03:35:26;;;;;;;39.10;17.90;;;;;;;8.32;96.81;98370.71;135817;1256;22769;-73
2023/11/13 03:38:29;;;;;;;41.50;18.60;;;;;;;8.33;96.25;98371.17;135839;1260;24296;-73
2023/11/13 03:41:32;;;;;;;40.60;18.30;;;;;;;8.22;96.92;98370.61;135854;1273;23790;-73
2023/11/13 03:44:34;;;;;;;39.60;18.50;;;;;;;8.28;96.59;98362.08;135916;1273;24027;-73
2023/11/13 03:47:38;;;;;;;;;;;;;;;8.22;97.80;98364.20;135942;1273;22665;-73
2023/11/13 03:50:40;;;;;;;40.20;18.80;;;;;;;8.30;97.18;98362.33;135843;1273;22545;-73
2023/11/13 03:53:43;;;;;;;44.20;20.40;;;;;;;8.19;97.80;98372.17;135929;1273;24245;-73
2023/11/13 03:56:45;;;;;;;42.20;19.10;;;;;;;8.24;97.37;98374.52;135883;1273;24244;-73
2023/11/13 03:59:48;;;;;;;44.90;20.40;;;;;;;8.26;97.06;98377.70;135923;1273;25336;-73
2023/11/13 04:02:50;;;;;;;46.50;21.00;;;;;;;8.24;97.27;98380.10;135841;1273;24205;-73
2023/11/13 04:05:54;;;;;;;44.40;20.90;;;;;;;8.25;97.36;98381.95;135860;1273;22773;-73
2023/11/13 04:08:57;;;;;;;43.70;20.60;;;;;;;8.30;96.73;98380.58;135806;1260;23412;-73
2023/11/13 04:11:59;;;;;;;43.00;19.00;;;;;;;8.36;96.26;98375.39;135852;1273;24202;-73
2023/11/13 04:15:03;;;;;;;;;;;;;;;8.35;96.24;98375.63;135832;1273;22512;-73
2023/11/13 04:18:05;;;;;;;38.20;17.50;;;;;;;8.40;96.09;98373.63;135860;1273;22550;-73
2023/11/13 04:21:08;;;;;;;43.10;19.00;;;;;;;8.44;96.20;98373.22;135850;1272;22530;-73
2023/11/13 04:24:11;;;;;;;41.90;19.10;;;;;;;8.46;95.99;98375.13;135823;1273;22562;-73
2023/11/13 04:27:13;;;;;;;43.40;19.50;;;;;;;8.44;96.10;98373.16;135880;1273;22539;-74
2023/11/13 04:30:16;;;;;;;41.60;19.10;;;;;;;8.44;96.39;98372.51;135864;1273;22587;-73
2023/11/13 04:33:18;;;;;;;45.10;19.40;;;;;;;8.33;97.05;98370.50;135897;1274;22555;-73
2023/11/13 04:36:21;;;;;;;38.20;18.80;;;;;;;8.33;96.32;98368.21;135869;1273;22555;-73
2023/11/13 04:39:23;;;;;;;44.60;18.90;;;;;;;8.27;96.54;98368.76;135902;1273;22534;-73
2023/11/13 04:42:26;;;;;;;;;;;;;;;8.16;97.01;98367.52;135920;1274;22521;-74
2023/11/13 04:45:29;;;;;;;40.60;17.40;;;;;;;8.15;97.11;98370.34;135902;1274;22556;-73
2023/11/13 04:48:32;;;;;;;42.70;18.70;;;;;;;8.10;97.19;98368.17;135900;1274;22536;-73
2023/11/13 04:51:35;;;;;;;39.30;18.10;;;;;;;8.22;96.44;98369.23;135877;1255;22544;-73
2023/11/13 04:54:37;;;;;;;39.10;18.50;;;;;;;8.19;96.57;98371.16;135906;1274;22545;-73
2023/11/13 04:57:40;;;;;;;41.30;19.20;;;;;;;8.22;96.15;98372.20;135920;1274;22546;-73
2023/11/13 05:00:42;;;;;;;41.60;19.10;;;;;;;8.14;96.78;98376.31;135912;1273;22537;-72
2023/11/13 05:03:45;;;;;;;38.80;18.60;;;;;;;8.08;96.82;98376.35;135854;1274;22531;-72
2023/11/13 05:06:48;;;;;;;41.90;18.90;;;;;;;8.16;96.12;98379.00;135877;1256;22538;-72
2023/11/13 05:09:50;;;;;;;45.50;20.00;;;;;;;8.11;96.46;98383.27;135870;1274;22531;-72
2023/11/13 05:12:53;;;;;;;41.20;17.70;;;;;;;8.03;97.34;98386.14;135817;1274;22526;-72
2023/11/13 05:15:55;;;;;;;40.90;18.40;;;;;;;8.17;96.31;98390.92;135850;1273;22537;-73
2023/11/13 05:18:58;;;;;;;42.40;18.30;;;;;;;8.14;96.90;98386.61;135891;1273;22543;-73
2023/11/13 05:22:01;;;;;;;40.20;18.00;;;;;;;8.12;96.84;98390.33;135855;1273;22554;-72
2023/11/13 05:25:03;;;;;;;40.80;18.30;;;;;;;8.26;95.57;98389.35;135860;1256;22618;-72
2023/11/13 05:28:07;;;;;;;42.60;18.20;;;;;;;8.27;95.09;98393.16;135889;1274;22625;-72
2023/11/13 05:31:09;;;;;;;40.90;17.70;;;;;;;8.11;96.39;98401.90;135843;1274;22632;-72
2023/11/13 05:34:12;;;;;;;43.80;17.70;;;;;;;8.11;96.64;98399.64;135891;1267;22546;-72
2023/11/13 05:37:15;;;;;;;40.90;18.00;;;;;;;8.07;96.90;98395.02;135847;1273;22530;-72
2023/11/13 05:40:19;;;;;;;36.90;16.20;;;;;;;8.20;96.32;98403.48;135925;1256;22538;-72
2023/11/13 05:43:21;;;;;;;41.70;17.90;;;;;;;8.16;96.71;98403.74;135882;1274;22539;-72
2023/11/13 05:46:24;;;;;;;42.70;17.70;;;;;;;8.24;95.97;98403.98;135887;1274;22532;-72
2023/11/13 05:49:26;;;;;;;38.30;16.60;;;;;;;8.28;95.89;98407.73;135817;1273;22527;-72
2023/11/13 05:52:29;;;;;;;43.00;16.70;;;;;;;8.19;96.65;98403.23;135827;1256;22569;-72
2023/11/13 05:55:32;;;;;;;;;;;;;;;8.03;97.71;98406.89;135892;1273;22514;-72
2023/11/13 05:58:35;;;;;;;39.70;17.40;;;;;;;8.07;97.60;98407.70;135894;1252;22547;-72
2023/11/13 06:01:37;;;;;;;39.60;19.40;;;;;;;8.15;96.82;98415.96;135855;1273;22533;-72
2023/11/13 06:04:40;;;;;;;45.00;20.60;;;;;;;8.11;97.03;98411.66;135835;1262;22550;-71
2023/11/13 06:07:43;;;;;;;;;;;;;;;7.97;97.72;98413.16;135785;1256;22516;-72
2023/11/13 06:10:45;;;;;;;48.00;23.60;;;;;;;7.78;99.34;98411.25;135760;1274;22550;-72
2023/11/13 06:13:48;;;;;;;45.40;19.80;;;;;;;7.87;99.15;98411.95;135796;1274;22555;-72
2023/11/13 06:16:51;;;;;;;42.40;19.00;;;;;;;7.91;98.90;98415.59;135858;1274;22531;-72
2023/11/13 06:19:53;;;;;;;41.30;18.40;;;;;;;7.99;98.58;98417.56;135844;1274;22643;-72
2023/11/13 06:22:56;;;;;;;43.00;19.00;;;;;;;8.16;97.92;98421.17;135888;1274;22526;-72
2023/11/13 06:25:58;;;;;;;;;;;;;;;8.11;98.26;98419.12;135903;1274;22511;-73
2023/11/13 06:29:01;;;;;;;39.20;18.30;;;;;;;8.07;98.65;98424.27;135890;1274;22577;-72
2023/11/13 06:32:05;;;;;;;40.00;17.50;;;;;;;8.09;98.48;98427.95;135920;1264;23334;-72
2023/11/13 06:35:08;;;;;;;42.20;18.60;;;;;;;8.15;98.06;98429.92;135904;1273;22550;-72
2023/11/13 06:38:12;;;;;;;41.10;17.70;;;;;;;8.00;98.59;98431.64;135910;1274;25413;-72
2023/11/13 06:41:15;;;;;;;40.40;17.40;;;;;;;8.02;98.77;98437.79;135933;1274;25232;-73
2023/11/13 06:44:17;;;;;;;;;;;;;;;8.01;99.02;98440.26;135885;1260;22604;-72
2023/11/13 06:47:19;;;;;;;37.20;15.90;;;;;;;8.06;98.89;98443.80;135882;1273;25400;-73
2023/11/13 06:50:23;;;;;;;36.00;15.50;;;;;;;8.16;98.45;98442.91;135855;1274;25386;-72
2023/11/13 06:53:25;;;;;;;38.30;16.90;;;;;;;8.36;96.86;98444.55;135863;1274;22541;-73
2023/11/13 06:56:28;;;;;;;34.40;16.30;;;;;;;8.41;96.07;98447.42;135826;1260;22559;-73
2023/11/13 06:59:30;;;;;;;34.20;16.50;;;;;;;8.43;95.93;98446.77;135859;1270;22537;-73
2023/11/13 07:02:33;;;;;;;35.40;16.10;;;;;;;8.35;95.85;98453.34;135873;1274;22522;-73
2023/11/13 07:05:35;;;;;;;37.20;15.70;;;;;;;8.38;95.53;98456.61;135903;1274;22554;-73
2023/11/13 07:08:38;;;;;;;34.20;14.80;;;;;;;8.38;95.64;98456.11;135875;1256;22600;-72
2023/11/13 07:11:42;;;;;;;34.80;15.40;;;;;;;8.39;95.48;98454.82;135862;1273;22560;-72
2023/11/13 07:14:45;;;;;;;34.00;15.00;;;;;;;8.40;96.06;98455.16;135877;1273;22542;-73
2023/11/13 07:17:48;;;;;;;47.50;18.70;;;;;;;8.53;96.00;98458.39;135886;1273;22640;-73
2023/11/13 07:20:52;;;;;;;45.60;19.00;;;;;;;8.56;94.96;98454.92;135888;1273;22572;-72
2023/11/13 07:23:54;;;;;;;52.20;22.40;;;;;;;8.62;95.31;98448.29;135920;1273;22538;-73
2023/11/13 07:27:00;;;;;;;41.90;17.40;;;;;;;8.68;95.68;98450.42;135875;1273;22999;-72
2023/11/13 07:30:03;;;;;;;38.50;17.00;;;;;;;8.62;95.16;98454.73;135874;1272;22611;-73
2023/11/13 07:33:05;;;;;;;41.70;18.10;;;;;;;8.71;95.19;98453.69;135925;1273;22561;-73
2023/11/13 07:36:08;;;;;;;47.10;19.10;;;;;;;8.85;94.00;98446.74;135921;1273;22661;-73
2023/11/13 07:39:11;;;;;;;45.90;19.60;;;;;;;8.98;93.15;98447.20;135927;1273;22549;-72
2023/11/13 07:42:14;;;;;;;83.00;36.30;;;;;;;8.96;93.97;98447.52;135886;1273;25002;-73
2023/11/13 07:45:17;;;;;;;63.80;30.40;;;;;;;9.12;93.18;98453.33;135886;1273;22542;-72
2023/11/13 07:48:19;;;;;;;37.10;17.10;;;;;;;9.12;92.63;98455.59;135830;1273;25319;-72
2023/11/13 07:51:22;;;;;;;35.40;15.50;;;;;;;9.13;91.20;98456.05;135838;1273;22574;-73
2023/11/13 07:54:25;;;;;;;35.30;16.30;;;;;;;9.19;91.72;98456.40;135922;1273;22598;-73
2023/11/13 07:57:27;;;;;;;31.40;13.50;;;;;;;9.27;92.05;98459.42;135916;1273;24055;-72
2023/11/13 08:00:34;;;;;;;31.00;12.90;;;;;;;9.45;90.96;98456.42;135877;1273;26533;-73
2023/11/13 08:03:37;;;;;;;35.80;13.50;;;;;;;9.24;91.34;98464.31;135874;1273;22553;-72
2023/11/13 08:06:39;;;;;;;38.40;14.10;;;;;;;9.36;90.94;98460.41;135916;1273;22526;-73
2023/11/13 08:09:42;;;;;;;34.40;13.70;;;;;;;9.48;90.61;98461.28;135878;1273;22552;-72
2023/11/13 08:12:45;;;;;;;30.10;13.20;;;;;;;9.52;88.91;98459.25;135920;1273;24329;-72
2023/11/13 08:15:50;;;;;;;32.80;13.50;;;;;;;9.47;89.14;98463.75;135920;1256;22628;-72
2023/11/13 08:18:53;;;;;;;29.80;11.80;;;;;;;9.46;89.08;98467.65;135897;1273;24199;-72
2023/11/13 08:21:55;;;;;;;31.90;12.30;;;;;;;9.39;89.45;98475.62;135876;1273;22960;-73
2023/11/13 08:24:58;;;;;;;38.10;13.50;;;;;;;9.38;90.07;98472.52;135821;1273;22537;-72
2023/11/13 08:28:00;;;;;;;28.90;11.40;;;;;;;9.49;89.23;98473.95;135822;1263;22612;-72
2023/11/13 08:31:03;;;;;;;29.90;11.80;;;;;;;9.55;88.98;98470.61;135940;1273;22671;-73
2023/11/13 08:34:06;;;;;;;31.40;12.50;;;;;;;9.62;87.48;98470.15;135897;1273;22634;-73
2023/11/13 08:37:08;;;;;;;;;;;;;;;9.81;86.10;98471.77;135852;1273;22534;-73
2023/11/13 08:40:12;;;;;;;25.70;10.40;;;;;;;9.83;86.73;98471.30;135859;1273;22542;-73
2023/11/13 08:43:14;;;;;;;27.50;10.20;;;;;;;9.93;86.31;98466.67;135908;1273;22649;-73
2023/11/13 08:46:17;;;;;;;32.80;11.90;;;;;;;9.95;85.92;98470.38;135826;1273;25451;-73
2023/11/13 08:49:20;;;;;;;26.30;9.80;;;;;;;10.03;85.75;98458.30;135870;1273;22543;-72
2023/11/13 08:52:23;;;;;;;27.30;9.70;;;;;;;9.79;85.04;98463.48;136102;1273;22796;-72
2023/11/13 08:55:26;;;;;;;28.90;11.50;;;;;;;9.76;85.33;98469.97;135950;1263;22549;-73
2023/11/13 08:58:29;;;;;;;28.40;10.40;;;;;;;9.75;85.49;98473.17;135942;1273;22643;-73
2023/11/13 09:01:31;;;;;;;31.50;10.90;;;;;;;9.67;85.13;98473.33;135911;1273;22516;-73
2023/11/13 09:04:34;;;;;;;27.10;11.10;;;;;;;9.67;85.69;98470.89;135912;1274;22642;-72
2023/11/13 09:07:37;;;;;;;27.10;10.50;;;;;;;9.63;85.87;98469.77;135857;1274;22613;-72
2023/11/13 09:10:41;;;;;;;;;;;;;;;9.56;86.58;98466.69;135980;1274;22529;-72
2023/11/13 09:13:46;;;;;;;28.70;10.20;;;;;;;9.63;85.35;98461.75;135937;1273;22668;-73
2023/11/13 09:16:49;;;;;;;27.70;10.70;;;;;;;9.60;86.25;98467.33;135926;1273;22732;-73
2023/11/13 09:19:51;;;;;;;;;;;;;;;9.78;86.34;98462.23;135917;1273;22535;-73
2023/11/13 09:22:54;;;;;;;27.90;11.80;;;;;;;9.86;86.68;98461.70;135911;1273;25243;-73
2023/11/13 09:25:57;;;;;;;29.20;11.80;;;;;;;9.96;85.76;98462.83;135878;1273;22556;-73
2023/11/13 09:28:59;;;;;;;29.70;11.60;;;;;;;10.10;85.15;98458.55;135889;1273;22537;-73
2023/11/13 09:32:02;;;;;;;;;;;;;;;10.04;84.11;98456.34;135982;1274;22513;-73
2023/11/13 09:35:05;;;;;;;29.00;11.30;;;;;;;10.02;84.28;98454.39;135920;1273;22519;-73
2023/11/13 09:38:09;;;;;;;31.80;12.10;;;;;;;10.13;84.16;98454.02;135971;1274;22535;-73
2023/11/13 09:41:11;;;;;;;33.10;13.30;;;;;;;10.11;85.95;98453.95;135932;1274;22553;-73
2023/11/13 09:44:14;;;;;;;30.30;12.30;;;;;;;10.53;84.25;98454.75;135896;1274;22542;-73
2023/11/13 09:47:16;;;;;;;31.80;13.20;;;;;;;10.58;82.40;98459.46;135920;1267;22540;-72
2023/11/13 09:50:20;;;;;;;29.10;11.90;;;;;;;10.64;82.10;98461.50;135942;1274;22554;-72
2023/11/13 09:53:25;;;;;;;27.00;10.40;;;;;;;10.56;81.73;98458.88;135940;1273;22533;-73
2023/11/13 09:56:29;;;;;;;29.30;10.90;;;;;;;10.78;82.01;98456.41;136013;1256;22784;-73
2023/11/13 09:59:33;;;;;;;27.70;10.80;;;;;;;10.77;82.73;98451.57;135965;1273;22541;-73
2023/11/13 10:02:36;;;;;;;26.10;10.20;;;;;;;10.83;82.52;98442.23;135916;1274;22608;-73
2023/11/13 10:05:38;;;;;;;;;;;;;;;10.84;82.31;98441.30;135865;1274;22531;-73
2023/11/13 10:08:41;;;;;;;27.40;10.60;;;;;;;11.02;81.74;98439.38;135861;1274;22536;-73
2023/11/13 10:11:44;;;;;;;29.10;10.40;;;;;;;11.04;81.80;98437.13;135995;1273;22579;-73
2023/11/13 10:14:47;;;;;;;26.40;10.60;;;;;;;10.94;81.04;98437.98;135962;1273;22539;-73
2023/11/13 10:17:49;;;;;;;25.10;9.10;;;;;;;10.84;81.15;98436.27;135941;1273;22553;-73
2023/11/13 10:20:52;;;;;;;25.80;9.80;;;;;;;10.82;80.66;98436.89;135993;1273;22556;-73
2023/11/13 10:23:54;;;;;;;29.00;10.60;;;;;;;10.72;80.48;98434.95;135910;1274;22643;-73
2023/11/13 10:26:57;;;;;;;30.30;11.90;;;;;;;10.55;81.65;98436.08;135922;1274;24358;-73
2023/11/13 10:30:00;;;;;;;;;;;;;;;10.51;81.08;98442.79;135970;1264;22773;-73
2023/11/13 10:33:03;;;;;;;29.90;10.40;;;;;;;10.49;80.96;98439.48;135949;1274;25258;-73
2023/11/13 10:36:06;;;;;;;30.20;10.70;;;;;;;10.48;82.23;98447.38;135958;1270;25907;-73
2023/11/13 10:39:15;;;;;;;27.00;10.30;;;;;;;10.41;81.51;98448.89;135921;1258;22608;-73
2023/11/13 10:42:22;;;;;;;24.70;9.60;;;;;;;10.34;80.41;98444.63;135968;1273;22617;-73
2023/11/13 10:45:24;;;;;;;25.50;9.20;;;;;;;10.26;80.21;98444.05;135915;1273;22552;-73
2023/11/13 10:48:27;;;;;;;27.40;9.00;;;;;;;10.12;80.10;98441.67;135993;1273;22543;-73
2023/11/13 10:51:30;;;;;;;;;;;;;;;10.11;79.62;98434.06;135983;1273;22515;-73
2023/11/13 10:54:35;;;;;;;35.40;12.00;;;;;;;10.12;78.70;98432.08;136010;1273;22571;-73
2023/11/13 10:57:39;;;;;;;32.20;11.00;;;;;;;10.09;79.91;98431.18;135915;1273;22631;-73
2023/11/13 11:00:42;;;;;;;28.90;10.00;;;;;;;10.01;80.15;98424.71;135954;1273;22554;-73
2023/11/13 11:03:45;;;;;;;29.40;10.40;;;;;;;9.97;79.82;98423.59;135963;1273;22564;-73
2023/11/13 11:06:49;;;;;;;28.70;10.20;;;;;;;10.09;81.12;98419.50;135925;1273;22615;-73
2023/11/13 11:09:52;;;;;;;34.80;14.90;;;;;;;10.65;81.52;98421.41;135885;1273;25402;-73
2023/11/13 11:12:59;;;;;;;30.00;12.00;;;;;;;11.17;80.94;98412.10;135972;1273;25386;-73
2023/11/13 11:16:04;;;;;;;24.50;9.00;;;;;;;11.58;79.33;98412.02;135990;1273;22759;-72
2023/11/13 11:19:07;;;;;;;31.10;11.20;;;;;;;11.83;76.87;98415.98;136001;1273;23404;-73
2023/11/13 11:22:09;;;;;;;26.00;8.20;;;;;;;12.07;77.62;98419.23;136031;1273;22687;-73
2023/11/13 11:25:12;;;;;;;26.10;8.20;;;;;;;12.18;72.73;98416.83;136003;1273;22541;-72
2023/11/13 11:28:15;;;;;;;24.70;9.10;;;;;;;12.01;70.49;98409.64;136026;1273;22527;-72
2023/11/13 11:31:17;;;;;;;27.90;9.60;;;;;;;12.03;72.34;98404.45;136039;1273;22533;-72
2023/11/13 11:34:22;;;;;;;;;;;;;;;12.12;72.71;98402.17;135986;1273;22527;-72
2023/11/13 11:37:25;;;;;;;24.00;7.20;;;;;;;12.27;68.08;98405.27;136000;1273;22545;-72
2023/11/13 11:40:28;;;;;;;;;;;;;;;12.28;65.88;98403.09;135998;1273;23861;-72
2023/11/13 11:43:31;;;;;;;;;;;;;;;12.20;60.75;98397.77;136005;1273;22511;-72
2023/11/13 11:46:33;;;;;;;24.30;7.60;;;;;;;12.13;59.77;98396.84;135949;1254;23758;-71
2023/11/13 11:49:37;;;;;;;24.10;7.60;;;;;;;12.21;60.23;98395.05;135999;1273;25969;-71
2023/11/13 11:52:40;;;;;;;23.60;7.20;;;;;;;12.39;60.78;98388.76;136036;1273;22547;-72
2023/11/13 11:55:42;;;;;;;;;;;;;;;12.46;58.88;98385.48;136030;1273;22598;-72
2023/11/13 11:58:45;;;;;;;22.00;6.50;;;;;;;12.49;59.52;98379.79;136000;1273;22556;-72
2023/11/13 12:01:47;;;;;;;;;;;;;;;12.27;56.95;98381.44;136082;1273;22539;-72
2023/11/13 12:04:50;;;;;;;27.10;7.70;;;;;;;11.79;55.99;98381.59;136005;1273;22587;-73
2023/11/13 12:07:54;;;;;;;24.00;7.40;;;;;;;11.32;56.28;98379.33;136058;1273;22580;-72
2023/11/13 12:10:57;;;;;;;24.10;7.60;;;;;;;11.09;56.68;98377.85;136019;1273;22643;-72
2023/11/13 12:13:59;;;;;;;22.90;5.90;;;;;;;11.03;56.86;98377.39;136029;1273;22723;-72
2023/11/13 12:17:03;;;;;;;;;;;;;;;11.18;55.86;98376.30;136084;1273;22533;-72
2023/11/13 12:20:07;;;;;;;23.10;5.90;;;;;;;11.47;55.37;98369.87;136070;1273;22601;-73
2023/11/13 12:23:09;;;;;;;26.30;7.00;;;;;;;11.56;54.37;98367.65;136037;1273;22535;-73
2023/11/13 12:26:13;;;;;;;;;;;;;;;11.70;55.61;98363.16;136011;1273;22516;-72
2023/11/13 12:29:15;;;;;;;26.60;6.50;;;;;;;11.96;55.23;98357.59;136091;1273;22554;-72
2023/11/13 12:32:18;;;;;;;31.00;9.20;;;;;;;12.08;54.68;98360.58;136002;1273;22568;-72
2023/11/13 12:35:22;;;;;;;31.60;9.10;;;;;;;12.19;55.39;98364.34;136023;1273;22528;-72
2023/11/13 12:38:25;;;;;;;26.90;7.20;;;;;;;12.52;54.67;98358.15;136032;1273;22681;-72
2023/11/13 12:41:28;;;;;;;33.40;9.10;;;;;;;12.53;53.56;98354.98;135969;1273;22544;-72
2023/11/13 12:44:30;;;;;;;30.30;8.10;;;;;;;12.49;53.61;98354.35;135988;1273;22541;-73
2023/11/13 12:47:32;;;;;;;;;;;;;;;12.57;54.66;98352.04;136029;1273;22968;-73
2023/11/13 12:50:35;;;;;;;21.70;6.70;;;;;;;12.82;53.91;98350.96;136013;1273;22645;-72
2023/11/13 12:53:38;;;;;;;;;;;;;;;12.98;53.89;98350.05;136044;1273;22519;-72
2023/11/13 12:56:41;;;;;;;25.00;5.80;;;;;;;13.11;51.54;98347.49;136054;1273;22541;-72
2023/11/13 12:59:44;;;;;;;;;;;;;;;13.13;50.19;98339.77;136012;1273;22534;-72
2023/11/13 13:02:46;;;;;;;15.80;4.40;;;;;;;13.15;49.88;98335.02;136018;1273;22586;-73
2023/11/13 13:05:49;;;;;;;;;;;;;;;12.96;48.29;98341.30;135944;1273;22503;-72
2023/11/13 13:08:56;;;;;;;21.30;5.50;;;;;;;12.91;50.76;98337.77;136008;1273;22543;-73
2023/11/13 13:12:00;;;;;;;20.40;5.30;;;;;;;12.83;50.41;98345.13;136062;1254;22636;-72
2023/11/13 13:15:03;;;;;;;20.20;6.00;;;;;;;12.83;49.53;98341.56;136040;1273;22579;-72
2023/11/13 13:18:06;;;;;;;20.30;5.40;;;;;;;12.84;50.90;98342.59;136050;1273;22564;-72
2023/11/13 13:21:10;;;;;;;20.30;4.80;;;;;;;12.98;49.59;98337.83;136043;1273;22543;-72
2023/11/13 13:24:12;;;;;;;17.10;4.50;;;;;;;12.96;48.70;98336.58;136051;1273;22534;-72
2023/11/13 13:27:15;;;;;;;;;;;;;;;12.64;47.76;98334.11;136007;1273;22517;-73
2023/11/13 13:30:18;;;;;;;19.00;4.70;;;;;;;12.49;49.36;98335.82;136061;1273;22537;-73
2023/11/13 13:33:21;;;;;;;18.80;5.00;;;;;;;12.44;48.60;98337.54;136002;1273;22541;-73
2023/11/13 13:36:24;;;;;;;;;;;;;;;12.39;48.78;98336.18;136049;1273;22511;-72
2023/11/13 13:39:26;;;;;;;;;;;;;;;12.22;47.79;98336.25;136033;1273;22531;-73
2023/11/13 13:42:29;;;;;;;18.10;4.20;;;;;;;12.16;47.83;98344.20;136014;1273;22541;-72
2023/11/13 13:45:32;;;;;;;18.90;5.10;;;;;;;12.04;49.50;98338.96;136000;1273;24446;-72
2023/11/13 13:48:35;;;;;;;19.70;5.10;;;;;;;12.04;48.68;98342.48;135975;1260;22556;-72
2023/11/13 13:51:38;;;;;;;23.70;5.20;;;;;;;11.93;48.71;98335.91;136004;1274;22553;-73
2023/11/13 13:54:41;;;;;;;21.70;6.40;;;;;;;11.83;49.53;98337.91;136055;1264;22609;-73
2023/11/13 13:57:45;;;;;;;;;;;;;;;11.80;49.70;98334.94;136101;1273;23331;-73
2023/11/13 14:00:48;;;;;;;26.80;9.00;;;;;;;11.76;49.86;98336.42;136037;1273;22525;-73
2023/11/13 14:03:54;;;;;;;28.30;9.80;;;;;;;11.89;49.94;98333.04;136075;1273;22622;-73
2023/11/13 14:06:57;;;;;;;25.40;8.80;;;;;;;11.82;50.04;98323.73;136061;1273;23505;-73
2023/11/13 14:09:59;;;;;;;33.60;12.80;;;;;;;11.79;49.35;98323.61;136060;1273;22554;-73
2023/11/13 14:13:04;;;;;;;;;;;;;;;11.80;49.76;98323.92;136086;1273;22530;-73